Time;durP1;ratioP1;P1;durP2;ratioP2;P2;SDS_P1;SDS_P2;PMS_P1;PMS_P2;Temp;Humidity;BMP_temperature;BMP_pressure;BME280_temperature;BME280_humidity;BME280_pressure;Samples;Min_cycle;Max_cycle;Signal;HPM_P1;HPM_P2
2021/07/20 00:01:18;;;;;;;22.70;14.23;;;19.30;71.30;;;;;;5033689;28;20567;-43
2021/07/20 00:03:48;;;;;;;18.67;14.30;;;19.20;71.50;;;;;;5036334;28;20481;-43
2021/07/20 00:06:16;;;;;;;20.63;13.83;;;19.20;71.70;;;;;;5038416;28;20963;-43
2021/07/20 00:08:43;;;;;;;20.23;13.50;;;19.10;71.90;;;;;;5034739;28;20547;-44
2021/07/20 00:11:10;;;;;;;20.60;13.50;;;19.10;72.10;;;;;;5034481;28;20498;-43
2021/07/20 00:13:37;;;;;;;16.40;12.57;;;19.00;72.20;;;;;;5036535;28;20525;-43
2021/07/20 00:16:05;;;;;;;19.43;13.17;;;19.00;72.20;;;;;;5039255;28;20455;-43
2021/07/20 00:18:35;;;;;;;20.47;12.50;;;19.00;72.30;;;;;;5037078;28;20464;-43
2021/07/20 00:21:05;;;;;;;20.90;14.37;;;18.90;72.30;;;;;;5035639;28;21001;-44
2021/07/20 00:23:33;;;;;;;17.77;13.67;;;18.90;72.30;;;;;;5040115;28;20485;-44
2021/07/20 00:26:00;;;;;;;20.53;13.20;;;18.80;72.30;;;;;;5035711;28;20471;-43
2021/07/20 00:28:27;;;;;;;22.73;14.80;;;18.80;72.40;;;;;;5031099;28;20980;-43
2021/07/20 00:30:54;;;;;;;20.57;14.13;;;18.70;72.50;;;;;;5033920;28;20574;-43
2021/07/20 00:33:21;;;;;;;19.27;13.33;;;18.70;72.60;;;;;;5036656;28;20471;-43
2021/07/20 00:35:48;;;;;;;17.97;13.57;;;18.70;72.70;;;;;;5040242;28;20838;-44
2021/07/20 00:38:15;;;;;;;17.27;13.67;;;18.60;72.70;;;;;;5040068;28;20541;-43
2021/07/20 00:40:43;;;;;;;19.57;13.77;;;18.60;72.70;;;;;;5035214;28;20483;-43
2021/07/20 00:43:10;;;;;;;19.30;13.97;;;18.60;73.10;;;;;;5035538;28;20466;-43
2021/07/20 00:45:37;;;;;;;19.17;13.93;;;18.50;73.10;;;;;;5034332;28;20633;-44
2021/07/20 00:48:05;;;;;;;22.03;14.20;;;18.50;73.10;;;;;;5039175;28;20901;-43
2021/07/20 00:50:44;;;;;;;25.00;15.03;;;18.50;73.10;;;;;;5036022;28;20583;-43
2021/07/20 00:53:12;;;;;;;20.90;14.60;;;18.40;72.90;;;;;;5035819;28;20880;-43
2021/07/20 00:55:40;;;;;;;17.90;13.67;;;18.40;73.00;;;;;;5035028;28;20967;-44
2021/07/20 00:58:09;;;;;;;20.40;14.20;;;18.30;73.20;;;;;;5033037;28;20542;-43
2021/07/20 01:00:36;;;;;;;19.07;13.17;;;18.30;73.40;;;;;;5039631;28;20573;-43
2021/07/20 01:03:05;;;;;;;23.43;14.40;;;18.20;73.50;;;;;;5033024;28;20447;-43
2021/07/20 01:05:34;;;;;;;19.10;13.83;;;18.20;73.50;;;;;;5033605;28;20931;-44
2021/07/20 01:08:05;;;;;;;16.60;13.10;;;18.20;73.40;;;;;;5037478;28;21016;-43
2021/07/20 01:10:33;;;;;;;20.30;13.00;;;18.10;73.50;;;;;;5035217;28;20490;-43
2021/07/20 01:13:00;;;;;;;19.40;13.63;;;18.10;73.70;;;;;;5031105;28;20516;-43
2021/07/20 01:15:27;;;;;;;19.90;14.40;;;18.00;73.90;;;;;;5033643;28;20882;-43
2021/07/20 01:17:56;;;;;;;18.10;13.77;;;18.00;74.10;;;;;;5034063;28;20486;-43
2021/07/20 01:20:26;;;;;;;21.50;14.47;;;18.00;74.40;;;;;;5037679;28;21036;-44
2021/07/20 01:23:06;;;;;;;21.07;14.43;;;17.90;74.50;;;;;;5032907;28;20548;-43
2021/07/20 01:25:34;;;;;;;18.70;13.00;;;18.00;74.80;;;;;;5036622;28;20497;-44
2021/07/20 01:28:05;;;;;;;22.33;14.80;;;17.90;74.80;;;;;;5034576;28;20832;-43
2021/07/20 01:30:33;;;;;;;20.10;13.23;;;17.90;74.80;;;;;;5032231;28;21047;-43
2021/07/20 01:33:02;;;;;;;19.93;14.10;;;17.90;74.70;;;;;;5038984;28;20549;-44
2021/07/20 01:35:30;;;;;;;20.53;15.03;;;17.90;75.00;;;;;;5034924;28;20550;-44
2021/07/20 01:37:58;;;;;;;19.00;12.20;;;17.90;74.90;;;;;;5039974;28;21026;-43
2021/07/20 01:40:27;;;;;;;18.30;12.40;;;17.80;75.00;;;;;;5037300;28;20832;-42
2021/07/20 01:42:55;;;;;;;19.60;13.50;;;17.80;75.10;;;;;;5036107;28;20538;-44
2021/07/20 01:45:23;;;;;;;19.80;14.13;;;17.80;75.10;;;;;;5031745;28;20456;-43
2021/07/20 01:47:52;;;;;;;20.63;13.17;;;17.80;75.20;;;;;;5039856;28;20490;-43
2021/07/20 01:50:20;;;;;;;22.80;13.03;;;17.80;75.30;;;;;;5031346;28;20463;-43
2021/07/20 01:52:49;;;;;;;20.57;14.10;;;17.70;75.30;;;;;;5033635;28;20618;-42
2021/07/20 01:55:17;;;;;;;22.27;13.93;;;17.70;75.40;;;;;;5031323;28;21011;-43
2021/07/20 01:57:44;;;;;;;16.87;13.77;;;17.70;75.30;;;;;;5034702;28;20459;-43
2021/07/20 02:00:18;;;;;;;20.37;14.60;;;17.70;75.30;;;;;;5032473;28;20552;-43
2021/07/20 02:10:57;;;;;;;19.67;12.30;;;17.50;75.60;;;;;;5040256;28;20503;-43
2021/07/20 02:13:29;;;;;;;20.57;13.60;;;17.50;75.60;;;;;;5031684;28;20542;-43
2021/07/20 02:15:57;;;;;;;18.50;13.30;;;17.50;75.70;;;;;;5035262;28;20460;-44
2021/07/20 02:18:28;;;;;;;19.20;12.90;;;17.40;75.60;;;;;;5033678;28;20463;-43
2021/07/20 02:20:56;;;;;;;19.33;13.23;;;17.40;75.60;;;;;;5034358;28;20577;-42
2021/07/20 02:23:23;;;;;;;19.50;13.03;;;17.40;75.80;;;;;;5031240;28;20464;-43
2021/07/20 02:25:54;;;;;;;16.60;12.03;;;17.40;75.80;;;;;;5036661;28;20490;-43
2021/07/20 02:28:21;;;;;;;22.43;13.40;;;17.30;75.80;;;;;;5030772;28;20501;-44
2021/07/20 02:30:51;;;;;;;18.33;12.37;;;17.30;75.80;;;;;;5031831;28;20984;-41
2021/07/20 02:33:20;;;;;;;21.23;13.60;;;17.30;75.80;;;;;;5032487;28;20451;-44
2021/07/20 02:35:49;;;;;;;21.70;13.27;;;17.20;76.00;;;;;;5035449;28;20544;-43
2021/07/20 02:38:23;;;;;;;20.77;13.00;;;17.20;76.30;;;;;;5037989;28;20466;-43
2021/07/20 02:40:51;;;;;;;17.37;12.10;;;17.20;76.50;;;;;;5035073;28;20486;-43
2021/07/20 02:43:19;;;;;;;19.23;13.27;;;17.20;76.60;;;;;;5035394;28;20455;-43
2021/07/20 02:45:48;;;;;;;22.13;14.00;;;17.10;76.60;;;;;;5035046;28;20458;-43
2021/07/20 02:48:17;;;;;;;20.13;12.50;;;17.10;76.70;;;;;;5037616;28;20450;-43
2021/07/20 02:50:44;;;;;;;19.20;12.63;;;17.20;76.90;;;;;;5034545;28;20462;-43
2021/07/20 02:53:11;;;;;;;18.30;13.40;;;17.20;77.00;;;;;;5033668;28;20530;-43
2021/07/20 02:55:40;;;;;;;15.53;11.17;;;17.20;76.90;;;;;;5039293;28;20491;-43
2021/07/20 02:58:07;;;;;;;19.47;13.40;;;17.10;76.80;;;;;;5033843;28;20541;-43
2021/07/20 03:00:36;;;;;;;19.60;12.90;;;17.10;76.70;;;;;;5036522;28;20574;-43
2021/07/20 03:03:03;;;;;;;18.73;13.10;;;17.00;76.80;;;;;;5033768;28;20847;-43
2021/07/20 03:05:30;;;;;;;21.80;14.63;;;17.00;76.90;;;;;;5034974;28;20459;-43
2021/07/20 03:08:01;;;;;;;20.07;13.37;;;17.00;77.10;;;;;;5032954;28;20542;-43
2021/07/20 03:10:31;;;;;;;20.03;13.77;;;17.00;77.20;;;;;;5033894;28;20542;-42
2021/07/20 03:13:04;;;;;;;18.20;13.57;;;17.00;77.40;;;;;;5033082;28;20918;-43
2021/07/20 03:15:32;;;;;;;19.40;12.60;;;17.00;77.20;;;;;;5035871;28;20459;-43
2021/07/20 03:18:02;;;;;;;19.03;13.70;;;17.00;77.20;;;;;;5038921;28;20474;-43
2021/07/20 03:20:31;;;;;;;18.60;13.33;;;16.90;77.20;;;;;;5037513;28;20502;-42
2021/07/20 03:22:59;;;;;;;18.80;12.77;;;16.90;77.10;;;;;;5037558;28;20454;-43
2021/07/20 03:25:27;;;;;;;25.67;12.37;;;16.90;77.00;;;;;;5037727;28;20489;-43
2021/07/20 03:27:55;;;;;;;24.70;13.77;;;16.90;76.90;;;;;;5036912;28;20550;-43
2021/07/20 03:30:25;;;;;;;20.00;12.20;;;16.90;77.00;;;;;;5039229;28;21015;-43
2021/07/20 03:32:53;;;;;;;20.00;13.67;;;16.90;76.90;;;;;;5037943;28;20537;-43
2021/07/20 03:35:21;;;;;;;17.77;12.27;;;16.80;76.90;;;;;;5034919;28;20455;-43
2021/07/20 03:37:49;;;;;;;19.60;13.17;;;16.80;76.90;;;;;;5037684;28;20462;-43
2021/07/20 03:40:16;;;;;;;19.33;14.03;;;16.80;77.00;;;;;;5037949;28;20487;-43
2021/07/20 03:42:44;;;;;;;22.67;14.27;;;16.70;77.10;;;;;;5036194;28;20540;-43
2021/07/20 03:45:11;;;;;;;20.07;13.83;;;16.70;77.20;;;;;;5040337;28;20545;-42
2021/07/20 03:47:41;;;;;;;19.37;12.93;;;16.60;77.30;;;;;;5040956;28;20534;-43
2021/07/20 03:50:09;;;;;;;22.23;13.00;;;16.60;77.50;;;;;;5035402;28;20487;-43
2021/07/20 03:52:41;;;;;;;18.87;12.97;;;16.60;77.60;;;;;;5038958;28;20821;-43
2021/07/20 03:55:09;;;;;;;21.17;12.63;;;16.60;77.80;;;;;;5035752;28;20467;-44
2021/07/20 03:57:36;;;;;;;21.23;13.10;;;16.60;77.90;;;;;;5040278;28;20463;-43
2021/07/20 04:00:07;;;;;;;19.93;13.07;;;16.50;77.90;;;;;;5035668;28;20453;-44
2021/07/20 04:05:34;;;;;;;17.80;12.43;;;16.50;77.90;;;;;;5031630;28;20461;-43
2021/07/20 04:08:01;;;;;;;18.77;13.43;;;16.50;78.10;;;;;;5038522;28;20855;-42
2021/07/20 04:10:29;;;;;;;17.53;12.50;;;16.50;78.20;;;;;;5034649;28;20869;-43
2021/07/20 04:12:56;;;;;;;16.93;12.37;;;16.50;78.50;;;;;;5036544;28;20458;-44
2021/07/20 04:15:24;;;;;;;17.87;13.10;;;16.50;78.60;;;;;;5035689;28;20547;-43
2021/07/20 04:17:51;;;;;;;21.97;14.47;;;16.50;78.70;;;;;;5038773;28;20505;-43
2021/07/20 04:20:18;;;;;;;22.83;14.23;;;16.50;78.70;;;;;;5033988;28;20888;-43
2021/07/20 04:22:47;;;;;;;21.20;13.47;;;16.50;78.80;;;;;;5036031;28;20495;-43
2021/07/20 04:25:15;;;;;;;23.87;15.77;;;16.50;79.00;;;;;;5033133;28;20491;-43
2021/07/20 04:27:42;;;;;;;18.60;13.40;;;16.50;79.10;;;;;;5034237;28;20466;-44
2021/07/20 04:30:10;;;;;;;21.70;13.90;;;16.60;79.40;;;;;;5039441;28;20542;-43
2021/07/20 04:32:45;;;;;;;18.73;14.23;;;16.60;79.40;;;;;;5036612;28;20970;-43
2021/07/20 04:35:15;;;;;;;25.80;16.00;;;16.60;79.60;;;;;;5034568;28;20489;-42
2021/07/20 04:37:44;;;;;;;21.10;14.43;;;16.60;79.70;;;;;;5034340;28;20539;-43
2021/07/20 04:40:12;;;;;;;20.00;13.50;;;16.60;79.80;;;;;;5034722;28;20484;-44
2021/07/20 04:42:40;;;;;;;22.23;13.40;;;16.70;79.30;;;;;;5041056;28;20575;-43
2021/07/20 04:45:09;;;;;;;23.87;14.30;;;16.70;78.90;;;;;;5035558;28;20462;-43
2021/07/20 04:47:40;;;;;;;24.63;15.73;;;16.70;78.80;;;;;;5033665;28;20542;-42
2021/07/20 04:50:09;;;;;;;24.40;15.40;;;16.80;78.90;;;;;;5038746;28;20566;-43
2021/07/20 04:52:38;;;;;;;21.40;14.30;;;16.80;78.90;;;;;;5039096;28;20462;-44
2021/07/20 04:55:06;;;;;;;22.17;14.67;;;16.80;78.90;;;;;;5036164;28;20534;-43
2021/07/20 04:57:35;;;;;;;20.83;14.03;;;16.80;79.00;;;;;;5036017;28;20463;-44
2021/07/20 05:00:05;;;;;;;24.93;14.83;;;16.80;79.10;;;;;;5034108;28;20469;-43
2021/07/20 05:02:35;;;;;;;22.60;15.83;;;16.90;79.20;;;;;;5037555;28;20479;-44
2021/07/20 05:05:06;;;;;;;22.50;15.10;;;16.90;79.20;;;;;;5034635;28;20459;-43
2021/07/20 05:07:34;;;;;;;19.43;14.33;;;16.90;79.20;;;;;;5037569;28;20602;-42
2021/07/20 05:10:01;;;;;;;22.50;15.20;;;16.90;79.40;;;;;;5041310;28;20475;-43
2021/07/20 05:12:31;;;;;;;23.10;14.87;;;17.00;79.50;;;;;;5032976;28;20466;-44
2021/07/20 05:14:59;;;;;;;25.83;15.80;;;17.00;79.60;;;;;;5035288;28;20479;-43
2021/07/20 05:17:33;;;;;;;27.80;15.40;;;17.10;79.60;;;;;;5033481;28;20545;-44
2021/07/20 05:20:03;;;;;;;23.83;15.67;;;17.10;79.70;;;;;;5034443;28;20558;-43
2021/07/20 05:22:31;;;;;;;22.07;15.53;;;17.20;79.80;;;;;;5033417;28;21100;-43
2021/07/20 05:24:58;;;;;;;27.77;15.90;;;17.30;80.00;;;;;;5033569;28;20534;-44
2021/07/20 05:27:25;;;;;;;26.63;16.20;;;17.30;79.90;;;;;;5039714;28;20523;-43
2021/07/20 05:29:53;;;;;;;23.37;15.47;;;17.40;79.70;;;;;;5036006;28;20883;-44
2021/07/20 05:32:23;;;;;;;24.60;15.40;;;17.40;79.60;;;;;;5041509;28;20538;-43
2021/07/20 05:34:50;;;;;;;23.60;14.90;;;17.50;79.50;;;;;;5035109;28;20463;-44
2021/07/20 05:37:18;;;;;;;21.83;14.50;;;17.50;79.60;;;;;;5035903;28;20454;-44
2021/07/20 05:39:47;;;;;;;22.13;14.70;;;17.60;79.70;;;;;;5037246;28;20478;-42
2021/07/20 05:42:18;;;;;;;23.03;14.80;;;17.70;79.60;;;;;;5035582;28;20491;-44
2021/07/20 05:44:46;;;;;;;19.47;15.33;;;17.70;79.60;;;;;;5038058;28;20554;-43
2021/07/20 05:47:17;;;;;;;23.03;15.30;;;17.80;79.50;;;;;;5036627;28;20534;-43
2021/07/20 05:49:56;;;;;;;26.13;15.80;;;17.80;79.30;;;;;;5031821;28;20552;-44
2021/07/20 05:52:24;;;;;;;25.03;17.07;;;17.80;79.30;;;;;;5039819;28;20462;-44
2021/07/20 05:54:52;;;;;;;20.03;13.87;;;17.90;79.20;;;;;;5033082;28;20461;-43
2021/07/20 05:57:19;;;;;;;20.93;14.20;;;17.90;78.90;;;;;;5037308;28;21022;-43
2021/07/20 05:59:47;;;;;;;22.90;14.97;;;18.00;78.60;;;;;;5037934;28;20818;-43
2021/07/20 06:02:17;;;;;;;22.90;14.10;;;18.00;78.90;;;;;;5032308;28;21032;-43
2021/07/20 06:04:45;;;;;;;22.57;15.87;;;18.10;79.00;;;;;;5039152;28;20455;-44
2021/07/20 06:07:13;;;;;;;21.50;13.97;;;18.20;79.00;;;;;;5036178;28;20455;-43
2021/07/20 06:09:44;;;;;;;21.07;13.80;;;18.20;79.10;;;;;;5033161;28;20440;-44
2021/07/20 06:12:14;;;;;;;18.63;13.43;;;18.30;78.60;;;;;;5032002;28;20539;-44
2021/07/20 06:14:42;;;;;;;20.63;14.20;;;18.30;78.10;;;;;;5033308;28;20837;-43
2021/07/20 06:17:09;;;;;;;24.00;16.30;;;18.40;78.00;;;;;;5032815;28;20890;-44
2021/07/20 06:19:38;;;;;;;22.90;13.93;;;18.50;77.60;;;;;;5033670;28;20474;-43
2021/07/20 06:22:09;;;;;;;20.37;13.97;;;18.50;76.50;;;;;;5033053;28;20482;-43
2021/07/20 06:24:45;;;;;;;24.53;13.70;;;18.60;76.20;;;;;;5036514;28;20944;-44
2021/07/20 06:27:13;;;;;;;21.73;12.97;;;18.70;76.00;;;;;;5033920;28;20450;-44
2021/07/20 06:29:44;;;;;;;19.43;12.70;;;18.70;75.80;;;;;;5035828;28;20872;-43
2021/07/20 06:32:13;;;;;;;19.90;13.33;;;18.80;74.70;;;;;;5022125;28;20471;-43
2021/07/20 06:34:40;;;;;;;20.53;13.07;;;18.90;74.60;;;;;;5030370;28;20463;-43
2021/07/20 06:37:08;;;;;;;20.97;14.03;;;18.90;74.30;;;;;;5035681;28;20470;-43
2021/07/20 06:39:37;;;;;;;20.37;13.00;;;19.00;74.30;;;;;;5035644;28;20454;-43
2021/07/20 06:42:07;;;;;;;18.87;11.80;;;19.00;74.20;;;;;;5034529;28;20573;-44
2021/07/20 06:44:35;;;;;;;20.00;13.40;;;19.10;74.30;;;;;;5034531;28;20736;-43
2021/07/20 06:47:03;;;;;;;20.33;14.97;;;19.20;73.60;;;;;;5036225;28;20454;-43
2021/07/20 06:49:33;;;;;;;24.53;13.93;;;19.30;72.80;;;;;;5035244;28;20582;-44
2021/07/20 06:52:01;;;;;;;19.40;13.40;;;19.40;73.10;;;;;;5031385;28;20553;-44
2021/07/20 06:54:27;;;;;;;19.13;12.53;;;19.40;73.30;;;;;;5034178;28;20514;-44
2021/07/20 06:56:56;;;;;;;19.33;13.73;;;19.60;73.10;;;;;;5035749;28;20547;-44
2021/07/20 06:59:24;;;;;;;19.30;12.70;;;19.60;72.90;;;;;;5036033;28;20546;-43
2021/07/20 07:01:52;;;;;;;19.03;12.70;;;19.70;72.00;;;;;;5032765;28;21008;-44
2021/07/20 07:04:31;;;;;;;16.10;12.30;;;19.80;72.00;;;;;;5036769;28;20462;-44
2021/07/20 07:06:58;;;;;;;17.73;12.00;;;20.00;71.00;;;;;;5034068;28;20517;-43
2021/07/20 07:09:30;;;;;;;19.60;12.97;;;20.10;70.60;;;;;;5040203;28;20454;-44
2021/07/20 07:11:58;;;;;;;20.80;13.57;;;20.10;70.50;;;;;;5037901;28;20814;-44
2021/07/20 07:14:28;;;;;;;21.03;13.17;;;20.20;70.40;;;;;;5035115;28;20550;-44
2021/07/20 07:16:55;;;;;;;14.73;11.87;;;20.30;69.80;;;;;;5035551;28;20471;-43
2021/07/20 07:19:23;;;;;;;18.13;11.73;;;20.40;69.50;;;;;;5033497;28;20443;-43
2021/07/20 07:21:51;;;;;;;12.30;9.53;;;20.50;67.80;;;;;;5040514;28;20561;-43
2021/07/20 07:24:22;;;;;;;14.90;9.50;;;20.60;68.20;;;;;;5034204;28;20473;-43
2021/07/20 07:26:51;;;;;;;17.07;10.00;;;20.70;67.20;;;;;;5033574;28;20487;-44
2021/07/20 07:29:19;;;;;;;15.83;10.67;;;20.90;66.40;;;;;;5033824;28;20830;-43
2021/07/20 07:31:49;;;;;;;16.07;10.10;;;21.00;66.70;;;;;;5033729;28;20465;-43
2021/07/20 07:34:16;;;;;;;16.07;9.87;;;21.20;66.30;;;;;;5035872;28;20848;-44
2021/07/20 07:36:45;;;;;;;15.67;9.87;;;21.30;65.40;;;;;;5033000;28;20463;-43
2021/07/20 07:39:14;;;;;;;24.53;11.73;;;21.40;64.80;;;;;;5033468;28;20934;-43
2021/07/20 07:41:45;;;;;;;18.20;10.30;;;21.60;64.00;;;;;;5036303;28;20483;-43
2021/07/20 07:44:15;;;;;;;16.27;10.33;;;21.70;63.90;;;;;;5028646;28;20518;-43
2021/07/20 07:46:44;;;;;;;16.93;9.73;;;21.90;64.00;;;;;;5035970;28;20469;-42
2021/07/20 07:49:12;;;;;;;14.50;10.00;;;21.90;63.50;;;;;;5031650;28;20439;-42
2021/07/20 07:51:42;;;;;;;14.63;10.30;;;21.90;63.70;;;;;;5033489;28;20489;-43
2021/07/20 07:54:09;;;;;;;19.90;11.20;;;21.90;63.90;;;;;;5036954;28;20494;-43
2021/07/20 07:56:37;;;;;;;15.00;9.60;;;21.90;63.80;;;;;;5036658;28;20443;-44
2021/07/20 07:59:05;;;;;;;13.83;9.57;;;22.00;63.50;;;;;;5034914;28;20881;-43
2021/07/20 08:01:35;;;;;;;17.13;10.50;;;22.10;62.90;;;;;;5032870;28;20535;-43
2021/07/20 08:04:04;;;;;;;13.80;9.97;;;22.10;62.30;;;;;;5035500;28;20447;-44
2021/07/20 08:06:31;;;;;;;14.90;10.47;;;22.00;62.60;;;;;;5040416;28;20463;-44
2021/07/20 08:09:12;;;;;;;12.43;9.77;;;22.00;63.00;;;;;;5039178;28;20541;-44
2021/07/20 08:11:41;;;;;;;12.63;9.73;;;21.90;63.00;;;;;;5037619;28;20497;-43
2021/07/20 08:14:08;;;;;;;13.20;9.70;;;21.90;64.20;;;;;;5037665;28;20836;-44
2021/07/20 08:16:42;;;;;;;16.13;9.67;;;21.90;64.00;;;;;;5037068;28;20514;-42
2021/07/20 08:19:11;;;;;;;13.90;9.60;;;21.90;63.10;;;;;;5025994;28;20864;-44
2021/07/20 08:21:39;;;;;;;18.07;9.40;;;21.80;62.90;;;;;;5035420;28;20454;-43
2021/07/20 08:24:09;;;;;;;12.80;9.30;;;21.70;62.90;;;;;;5034627;28;20477;-43
2021/07/20 08:27:21;;;;;;;12.47;9.80;;;21.70;62.50;;;;;;5036505;28;20478;-43
2021/07/20 08:29:51;;;;;;;11.97;9.33;;;21.70;62.50;;;;;;5039616;28;20488;-43
2021/07/20 08:32:23;;;;;;;11.77;8.30;;;21.60;62.40;;;;;;5021791;28;20459;-43
2021/07/20 08:35:04;;;;;;;10.93;9.17;;;21.60;64.20;;;;;;5034759;28;20435;-43
2021/07/20 08:37:52;;;;;;;12.57;8.93;;;21.60;63.40;;;;;;5022180;28;20455;-44
2021/07/20 08:40:35;;;;;;;14.40;9.70;;;21.80;62.90;;;;;;5022025;28;20939;-43
2021/07/20 08:43:21;;;;;;;13.67;8.87;;;22.20;62.20;;;;;;5035939;28;20497;-43
2021/07/20 08:46:08;;;;;;;18.40;10.67;;;22.40;62.20;;;;;;5042509;28;20526;-43
2021/07/20 08:49:08;;;;;;;13.60;8.90;;;22.60;60.60;;;;;;5037937;28;20698;-43
2021/07/20 08:51:48;;;;;;;13.87;9.60;;;22.70;60.70;;;;;;5036955;28;20925;-43
2021/07/20 08:54:28;;;;;;;12.33;8.83;;;22.90;59.90;;;;;;5027835;28;20463;-44
2021/07/20 08:57:02;;;;;;;11.50;8.63;;;23.10;59.20;;;;;;5035717;28;20454;-44
2021/07/20 09:00:08;;;;;;;11.67;8.43;;;23.40;58.70;;;;;;5035575;28;20534;-44
2021/07/20 09:03:06;;;;;;;14.60;9.37;;;23.70;57.20;;;;;;5036811;28;20490;-43
2021/07/20 09:05:55;;;;;;;13.77;10.00;;;23.80;55.40;;;;;;5035703;28;20454;-44
2021/07/20 09:08:54;;;;;;;15.10;9.13;;;23.80;55.60;;;;;;5039450;28;20481;-44
2021/07/20 09:11:30;;;;;;;11.53;9.13;;;23.70;56.30;;;;;;5027643;28;20523;-43
2021/07/20 09:14:24;;;;;;;14.13;8.87;;;23.50;56.00;;;;;;5034507;28;20449;-43
2021/07/20 09:17:02;;;;;;;9.57;8.07;;;23.30;56.00;;;;;;5020533;28;20478;-44
2021/07/20 09:19:56;;;;;;;10.50;8.10;;;23.10;55.80;;;;;;5035083;28;20462;-43
2021/07/20 09:22:44;;;;;;;12.80;9.73;;;23.00;57.00;;;;;;5038959;28;20522;-43
2021/07/20 09:25:23;;;;;;;14.17;9.97;;;22.90;57.50;;;;;;5026948;28;20493;-43
2021/07/20 09:27:52;;;;;;;12.30;8.40;;;22.80;57.10;;;;;;5034658;28;20479;-44
2021/07/20 09:30:25;;;;;;;18.20;9.57;;;22.90;55.30;;;;;;5038585;28;20566;-43
2021/07/20 09:33:20;;;;;;;14.43;8.90;;;23.10;55.50;;;;;;5038517;28;20443;-44
2021/07/20 09:35:58;;;;;;;10.93;8.87;;;23.10;55.20;;;;;;5028373;28;20494;-44
2021/07/20 09:38:55;;;;;;;10.73;8.27;;;23.10;55.90;;;;;;5034289;28;21021;-43
2021/07/20 09:41:36;;;;;;;11.40;7.83;;;23.10;54.40;;;;;;5034243;28;20454;-43
2021/07/20 09:44:22;;;;;;;10.63;9.20;;;23.40;54.10;;;;;;5031997;28;20857;-43
2021/07/20 09:46:55;;;;;;;12.57;8.07;;;24.10;52.90;;;;;;5032308;28;20545;-44
2021/07/20 09:49:57;;;;;;;11.00;8.27;;;24.90;50.80;;;;;;5033562;28;20438;-44
2021/07/20 09:52:41;;;;;;;13.07;8.30;;;25.70;48.20;;;;;;5033223;28;20771;-44
2021/07/20 09:55:46;;;;;;;10.37;7.57;;;26.50;46.60;;;;;;5034213;28;20473;-44
2021/07/20 09:58:34;;;;;;;10.83;8.03;;;27.30;46.00;;;;;;5037091;28;20497;-45
2021/07/20 10:01:17;;;;;;;9.97;7.80;;;28.00;45.30;;;;;;5036363;28;20966;-43
2021/07/20 10:04:01;;;;;;;12.17;8.50;;;28.30;43.80;;;;;;5033798;28;20258;-44
2021/07/20 10:06:46;;;;;;;10.10;7.83;;;28.10;44.00;;;;;;5037587;28;20222;-44
2021/07/20 10:09:49;;;;;;;12.60;8.40;;;27.70;43.90;;;;;;5016672;28;20672;-44
2021/07/20 10:12:20;;;;;;;10.30;7.40;;;27.00;45.10;;;;;;5034960;28;20450;-43
2021/07/20 10:14:58;;;;;;;10.10;8.20;;;26.40;46.20;;;;;;5035438;28;20932;-44
2021/07/20 10:17:30;;;;;;;11.50;8.00;;;25.90;47.00;;;;;;5026573;28;20498;-43
2021/07/20 10:20:05;;;;;;;10.90;8.10;;;25.50;47.90;;;;;;5037407;28;20485;-43
2021/07/20 10:22:49;;;;;;;9.53;7.53;;;25.40;47.50;;;;;;5033668;28;20492;-44
2021/07/20 10:25:25;;;;;;;11.20;7.87;;;25.60;47.30;;;;;;5032268;28;21032;-43
2021/07/20 10:28:23;;;;;;;7.83;6.90;;;26.20;46.70;;;;;;5031997;28;20458;-43
2021/07/20 10:31:09;;;;;;;11.33;7.80;;;26.90;44.50;;;;;;5014826;28;20469;-44
2021/07/20 10:33:49;;;;;;;9.17;7.40;;;27.50;43.80;;;;;;5026680;28;20536;-42
2021/07/20 10:36:22;;;;;;;10.60;7.90;;;28.10;43.20;;;;;;5020926;28;20222;-42
2021/07/20 10:39:19;;;;;;;8.07;7.13;;;28.70;41.90;;;;;;5035206;28;20215;-41
2021/07/20 10:42:35;;;;;;;8.38;7.35;;;29.00;41.10;;;;;;5033114;28;20244;-44
2021/07/20 10:45:05;;;;;;;9.87;7.80;;;29.20;41.60;;;;;;5023061;28;20346;-44
2021/07/20 10:47:57;;;;;;;8.87;7.80;;;29.20;41.60;;;;;;5030880;28;20208;-44
2021/07/20 10:50:38;;;;;;;8.77;7.00;;;29.00;41.80;;;;;;5033841;28;20246;-44
2021/07/20 10:53:24;;;;;;;8.60;7.70;;;28.60;42.40;;;;;;5033874;28;20234;-44
2021/07/20 10:56:09;;;;;;;11.40;7.90;;;28.20;42.00;;;;;;5027843;28;20207;-43
2021/07/20 10:58:48;;;;;;;12.50;8.27;;;27.80;42.70;;;;;;5035139;28;20635;-43
2021/07/20 11:01:34;;;;;;;15.23;8.13;;;27.40;43.10;;;;;;5034305;28;20265;-43
2021/07/20 11:04:30;;;;;;;7.77;6.97;;;27.10;43.80;;;;;;5037448;28;20224;-43
2021/07/20 11:06:57;;;;;;;9.23;7.97;;;26.80;43.80;;;;;;5037082;28;20488;-43
2021/07/20 11:09:27;;;;;;;9.53;7.33;;;26.60;44.60;;;;;;5035595;28;20545;-43
2021/07/20 11:11:58;;;;;;;9.73;7.33;;;26.40;45.30;;;;;;5034232;28;20240;-43
2021/07/20 11:14:32;;;;;;;11.63;7.80;;;26.10;44.90;;;;;;5038951;28;20679;-43
2021/07/20 11:17:00;;;;;;;9.37;6.90;;;25.90;45.40;;;;;;5032906;28;20475;-43
2021/07/20 11:19:29;;;;;;;12.20;7.77;;;25.80;45.80;;;;;;5036554;28;20470;-43
2021/07/20 11:21:58;;;;;;;9.33;7.40;;;25.70;45.50;;;;;;5036329;28;20490;-43
2021/07/20 11:24:26;;;;;;;12.33;8.43;;;25.60;46.30;;;;;;5029410;28;20482;-43
2021/07/20 11:26:56;;;;;;;8.90;7.20;;;25.50;46.50;;;;;;5031387;28;20518;-43
2021/07/20 11:29:23;;;;;;;9.23;7.03;;;25.30;46.40;;;;;;5033948;28;20453;-43
2021/07/20 11:31:57;;;;;;;10.20;7.67;;;25.20;47.00;;;;;;5031624;28;20962;-43
2021/07/20 11:34:31;;;;;;;11.57;7.00;;;25.20;47.00;;;;;;5032464;28;20455;-42
2021/07/20 11:37:28;;;;;;;10.50;8.77;;;25.00;46.50;;;;;;5039057;28;20455;-42
2021/07/20 11:40:07;;;;;;;11.20;7.90;;;24.90;47.00;;;;;;5038520;28;20797;-43
2021/07/20 15:37:06;;;;;;;8.20;7.40;;;27.90;43.50;;;;;;3401849;23;20232;-41
2021/07/20 15:39:45;;;;;;;8.80;6.90;;;27.80;43.80;;;;;;4973672;28;20209;-41
2021/07/20 15:42:15;;;;;;;8.67;7.13;;;27.70;44.10;;;;;;5005287;28;20239;-42
2021/07/20 15:48:49;;;;;;;10.67;7.50;;;27.60;42.20;;;;;;5005873;28;20774;-42
2021/07/20 15:51:19;;;;;;;9.07;6.67;;;27.40;43.40;;;;;;4983196;28;20477;-43
2021/07/20 15:53:47;;;;;;;10.60;6.50;;;27.40;43.90;;;;;;4946838;29;20900;-41
2021/07/20 15:56:15;;;;;;;7.87;6.43;;;27.30;44.10;;;;;;4947430;28;20229;-42
2021/07/20 15:58:45;;;;;;;10.47;7.17;;;27.30;44.10;;;;;;4945175;28;20203;-41
2021/07/20 16:01:14;;;;;;;7.67;6.87;;;27.30;43.90;;;;;;4948368;28;20679;-42
2021/07/20 16:03:45;;;;;;;8.10;6.20;;;27.20;44.60;;;;;;4948252;29;20480;-41
2021/07/20 16:06:17;;;;;;;12.00;7.20;;;27.10;45.20;;;;;;4944412;28;20211;-40
2021/07/20 16:08:44;;;;;;;10.87;7.23;;;27.00;45.40;;;;;;4944829;29;20553;-42
2021/07/20 16:11:13;;;;;;;7.60;6.80;;;27.00;46.20;;;;;;4946728;29;20458;-42
2021/07/20 16:13:48;;;;;;;8.00;6.50;;;27.00;46.00;;;;;;4946673;28;20552;-43
2021/07/20 16:16:17;;;;;;;7.70;6.93;;;27.00;45.50;;;;;;4949809;29;20460;-41
2021/07/20 16:18:44;;;;;;;12.73;6.83;;;26.90;44.80;;;;;;4944766;29;20463;-42
2021/07/20 16:21:13;;;;;;;9.70;6.40;;;26.80;45.20;;;;;;4942384;29;20502;-42
2021/07/20 16:23:40;;;;;;;6.90;6.20;;;26.80;45.10;;;;;;4949117;28;20498;-42
2021/07/20 16:26:09;;;;;;;8.60;6.70;;;26.70;45.20;;;;;;4945241;28;21069;-42
2021/07/20 16:28:46;;;;;;;9.33;6.70;;;26.70;46.20;;;;;;4950708;28;20526;-43
2021/07/20 16:31:14;;;;;;;9.10;6.40;;;26.60;44.80;;;;;;4951724;28;20499;-41
2021/07/20 16:33:44;;;;;;;8.40;6.60;;;26.50;44.20;;;;;;4951797;28;20474;-41
2021/07/20 16:36:12;;;;;;;9.60;6.70;;;26.50;44.70;;;;;;4946496;28;20487;-42
2021/07/20 16:38:39;;;;;;;10.97;6.70;;;26.50;45.20;;;;;;4944546;28;20458;-43
2021/07/20 16:41:08;;;;;;;7.53;6.27;;;26.40;45.40;;;;;;4940314;28;20463;-39
2021/07/20 16:43:38;;;;;;;12.10;7.00;;;26.40;45.80;;;;;;4935985;28;20498;-41
2021/07/20 16:46:08;;;;;;;10.53;7.60;;;26.30;46.10;;;;;;4944146;28;20479;-40
2021/07/20 16:48:37;;;;;;;11.57;6.83;;;26.40;45.60;;;;;;4938905;28;21093;-41
2021/07/20 16:51:07;;;;;;;9.77;6.77;;;26.40;46.00;;;;;;4941072;28;20491;-41
2021/07/20 16:53:40;;;;;;;9.07;7.23;;;26.30;45.70;;;;;;4943538;28;20589;-42
2021/07/20 16:56:18;;;;;;;10.50;6.90;;;26.30;45.70;;;;;;4942302;28;20538;-40
2021/07/20 16:58:48;;;;;;;9.90;6.83;;;26.30;45.40;;;;;;4943721;28;20494;-42
2021/07/20 17:01:19;;;;;;;9.60;6.97;;;26.20;46.50;;;;;;4943570;28;20892;-41
2021/07/20 17:03:52;;;;;;;7.70;6.50;;;26.20;46.40;;;;;;4940894;28;20512;-39
2021/07/20 17:06:24;;;;;;;12.90;6.70;;;26.20;45.50;;;;;;4948283;28;20447;-42
2021/07/20 17:08:51;;;;;;;9.93;7.57;;;26.10;46.50;;;;;;4938685;28;20504;-41